sensor_id;sensor_type;location;lat;lon;timestamp;temperature;humidity
35796;DHT22;21916;52.428;13.302;2022-12-15T00:00:21;-7.20;99.90
35796;DHT22;21916;52.428;13.302;2022-12-15T00:03:06;-7.20;99.90
35796;DHT22;21916;52.428;13.302;2022-12-15T00:05:50;-7.20;99.90
35796;DHT22;21916;52.428;13.302;2022-12-15T00:08:35;-7.20;99.90
35796;DHT22;21916;52.428;13.302;2022-12-15T00:11:19;-7.30;99.90
35796;DHT22;21916;52.428;13.302;2022-12-15T00:14:04;-7.40;99.90
35796;DHT22;21916;52.428;13.302;2022-12-15T00:16:48;-7.40;99.90
35796;DHT22;21916;52.428;13.302;2022-12-15T00:19:33;-7.30;99.90
35796;DHT22;21916;52.428;13.302;2022-12-15T00:22:18;-7.30;99.90
35796;DHT22;21916;52.428;13.302;2022-12-15T00:25:02;-7.40;99.90
35796;DHT22;21916;52.428;13.302;2022-12-15T00:27:47;-7.60;99.90
35796;DHT22;21916;52.428;13.302;2022-12-15T00:30:32;-7.60;99.90
35796;DHT22;21916;52.428;13.302;2022-12-15T00:33:16;-7.60;99.90
35796;DHT22;21916;52.428;13.302;2022-12-15T00:36:01;-7.70;99.90
35796;DHT22;21916;52.428;13.302;2022-12-15T00:38:45;-7.70;99.90
35796;DHT22;21916;52.428;13.302;2022-12-15T00:41:14;-7.80;99.90
35796;DHT22;21916;52.428;13.302;2022-12-15T00:43:41;-7.90;99.90
35796;DHT22;21916;52.428;13.302;2022-12-15T00:46:07;-8.00;99.90
35796;DHT22;21916;52.428;13.302;2022-12-15T00:48:52;-7.90;99.90
35796;DHT22;21916;52.428;13.302;2022-12-15T00:51:18;-8.10;99.90
35796;DHT22;21916;52.428;13.302;2022-12-15T00:53:45;-8.10;99.90
35796;DHT22;21916;52.428;13.302;2022-12-15T00:56:30;-8.20;99.90
35796;DHT22;21916;52.428;13.302;2022-12-15T00:59:16;-8.10;99.90
35796;DHT22;21916;52.428;13.302;2022-12-15T01:02:01;-8.00;99.90
35796;DHT22;21916;52.428;13.302;2022-12-15T01:04:46;-8.10;99.90
35796;DHT22;21916;52.428;13.302;2022-12-15T01:07:30;-8.10;99.90
35796;DHT22;21916;52.428;13.302;2022-12-15T01:10:17;-8.10;99.90
35796;DHT22;21916;52.428;13.302;2022-12-15T01:13:03;-8.20;99.90
35796;DHT22;21916;52.428;13.302;2022-12-15T01:15:47;-8.30;99.90
35796;DHT22;21916;52.428;13.302;2022-12-15T01:18:33;-8.30;99.90
35796;DHT22;21916;52.428;13.302;2022-12-15T01:21:18;-8.40;99.90
35796;DHT22;21916;52.428;13.302;2022-12-15T01:23:44;-8.40;99.90
35796;DHT22;21916;52.428;13.302;2022-12-15T01:26:09;-8.40;99.90
35796;DHT22;21916;52.428;13.302;2022-12-15T01:28:35;-8.40;99.90
35796;DHT22;21916;52.428;13.302;2022-12-15T01:31:08;-8.30;99.90
35796;DHT22;21916;52.428;13.302;2022-12-15T01:33:36;-8.20;99.90
35796;DHT22;21916;52.428;13.302;2022-12-15T01:36:03;-8.10;99.90
35796;DHT22;21916;52.428;13.302;2022-12-15T01:38:29;-8.20;99.90
35796;DHT22;21916;52.428;13.302;2022-12-15T01:41:02;-8.20;99.90
35796;DHT22;21916;52.428;13.302;2022-12-15T01:43:32;-8.20;99.90
35796;DHT22;21916;52.428;13.302;2022-12-15T01:46:09;-8.20;99.90
35796;DHT22;21916;52.428;13.302;2022-12-15T01:48:51;-8.20;99.90
35796;DHT22;21916;52.428;13.302;2022-12-15T01:51:31;-8.30;99.90
35796;DHT22;21916;52.428;13.302;2022-12-15T01:54:14;-8.30;99.90
35796;DHT22;21916;52.428;13.302;2022-12-15T01:56:45;-8.20;99.90
35796;DHT22;21916;52.428;13.302;2022-12-15T01:59:17;-8.20;99.90
35796;DHT22;21916;52.428;13.302;2022-12-15T02:01:44;-8.20;99.90
35796;DHT22;21916;52.428;13.302;2022-12-15T02:04:11;-8.20;99.90
35796;DHT22;21916;52.428;13.302;2022-12-15T02:06:38;-8.20;99.90
35796;DHT22;21916;52.428;13.302;2022-12-15T02:09:04;-8.30;99.90
35796;DHT22;21916;52.428;13.302;2022-12-15T02:14:07;-8.20;99.90
35796;DHT22;21916;52.428;13.302;2022-12-15T02:17:01;-8.30;99.90
35796;DHT22;21916;52.428;13.302;2022-12-15T02:23:02;-8.30;99.90
35796;DHT22;21916;52.428;13.302;2022-12-15T02:31:39;-8.50;99.90
35796;DHT22;21916;52.428;13.302;2022-12-15T02:37:07;-8.60;99.90
35796;DHT22;21916;52.428;13.302;2022-12-15T02:39:35;-8.70;99.90
35796;DHT22;21916;52.428;13.302;2022-12-15T02:42:01;-8.70;99.90
35796;DHT22;21916;52.428;13.302;2022-12-15T02:44:33;-8.60;99.90
35796;DHT22;21916;52.428;13.302;2022-12-15T03:01:09;-8.70;99.90
35796;DHT22;21916;52.428;13.302;2022-12-15T03:03:37;-8.80;99.90
35796;DHT22;21916;52.428;13.302;2022-12-15T03:06:03;-8.80;99.90
35796;DHT22;21916;52.428;13.302;2022-12-15T03:08:29;-9.00;99.90
35796;DHT22;21916;52.428;13.302;2022-12-15T03:10:56;-9.10;99.90
35796;DHT22;21916;52.428;13.302;2022-12-15T03:13:24;-9.20;99.90
35796;DHT22;21916;52.428;13.302;2022-12-15T03:15:49;-9.20;99.90
35796;DHT22;21916;52.428;13.302;2022-12-15T03:18:16;-9.20;99.90
35796;DHT22;21916;52.428;13.302;2022-12-15T03:20:43;-9.20;99.90
35796;DHT22;21916;52.428;13.302;2022-12-15T03:23:09;-9.20;99.90
35796;DHT22;21916;52.428;13.302;2022-12-15T03:25:35;-9.20;99.90
35796;DHT22;21916;52.428;13.302;2022-12-15T03:28:01;-9.10;99.90
35796;DHT22;21916;52.428;13.302;2022-12-15T03:30:27;-9.00;99.90
35796;DHT22;21916;52.428;13.302;2022-12-15T03:32:53;-9.10;99.90
35796;DHT22;21916;52.428;13.302;2022-12-15T03:35:20;-9.20;99.90
35796;DHT22;21916;52.428;13.302;2022-12-15T03:37:49;-9.30;99.90
35796;DHT22;21916;52.428;13.302;2022-12-15T03:40:16;-9.20;99.90
35796;DHT22;21916;52.428;13.302;2022-12-15T03:42:43;-9.20;99.90
35796;DHT22;21916;52.428;13.302;2022-12-15T03:45:23;-9.20;99.90
35796;DHT22;21916;52.428;13.302;2022-12-15T03:47:50;-9.30;99.90
35796;DHT22;21916;52.428;13.302;2022-12-15T03:50:21;-9.30;99.90
35796;DHT22;21916;52.428;13.302;2022-12-15T03:53:15;-9.30;99.90
35796;DHT22;21916;52.428;13.302;2022-12-15T03:55:41;-9.30;99.90
35796;DHT22;21916;52.428;13.302;2022-12-15T03:58:07;-9.30;99.90
35796;DHT22;21916;52.428;13.302;2022-12-15T04:00:33;-9.30;99.90
35796;DHT22;21916;52.428;13.302;2022-12-15T04:02:59;-9.30;99.90
35796;DHT22;21916;52.428;13.302;2022-12-15T04:05:29;-9.20;99.90
35796;DHT22;21916;52.428;13.302;2022-12-15T04:07:57;-9.20;99.90
35796;DHT22;21916;52.428;13.302;2022-12-15T04:10:24;-9.20;99.90
35796;DHT22;21916;52.428;13.302;2022-12-15T04:12:57;-9.20;99.90
35796;DHT22;21916;52.428;13.302;2022-12-15T04:15:23;-9.20;99.90
35796;DHT22;21916;52.428;13.302;2022-12-15T04:17:49;-9.20;99.90
35796;DHT22;21916;52.428;13.302;2022-12-15T04:20:15;-9.20;99.90
35796;DHT22;21916;52.428;13.302;2022-12-15T04:22:44;-9.30;99.90
35796;DHT22;21916;52.428;13.302;2022-12-15T04:25:16;-9.30;99.90
35796;DHT22;21916;52.428;13.302;2022-12-15T04:28:01;-9.20;99.90
35796;DHT22;21916;52.428;13.302;2022-12-15T04:30:52;-9.30;99.90
35796;DHT22;21916;52.428;13.302;2022-12-15T04:33:41;-9.30;99.90
35796;DHT22;21916;52.428;13.302;2022-12-15T04:36:29;-9.20;99.90
35796;DHT22;21916;52.428;13.302;2022-12-15T04:39:14;-9.20;99.90
35796;DHT22;21916;52.428;13.302;2022-12-15T04:41:59;-9.10;99.90
35796;DHT22;21916;52.428;13.302;2022-12-15T04:44:46;-9.10;99.90
35796;DHT22;21916;52.428;13.302;2022-12-15T04:47:31;-9.10;99.90
35796;DHT22;21916;52.428;13.302;2022-12-15T04:50:15;-9.10;99.90
35796;DHT22;21916;52.428;13.302;2022-12-15T04:53:08;-9.10;99.90
35796;DHT22;21916;52.428;13.302;2022-12-15T04:55:52;-9.10;99.90
35796;DHT22;21916;52.428;13.302;2022-12-15T04:58:39;-9.00;99.90
35796;DHT22;21916;52.428;13.302;2022-12-15T05:01:25;-8.90;99.90
35796;DHT22;21916;52.428;13.302;2022-12-15T05:04:09;-8.80;99.90
35796;DHT22;21916;52.428;13.302;2022-12-15T05:06:54;-8.70;99.90
35796;DHT22;21916;52.428;13.302;2022-12-15T05:09:38;-8.60;99.90
35796;DHT22;21916;52.428;13.302;2022-12-15T05:12:22;-8.50;99.90
35796;DHT22;21916;52.428;13.302;2022-12-15T05:15:07;-8.60;99.90
35796;DHT22;21916;52.428;13.302;2022-12-15T05:17:51;-8.50;99.90
35796;DHT22;21916;52.428;13.302;2022-12-15T05:20:36;-8.40;99.90
35796;DHT22;21916;52.428;13.302;2022-12-15T05:23:20;-8.50;99.90
35796;DHT22;21916;52.428;13.302;2022-12-15T05:26:05;-8.40;99.90
35796;DHT22;21916;52.428;13.302;2022-12-15T05:28:49;-8.50;99.90
35796;DHT22;21916;52.428;13.302;2022-12-15T05:31:33;-8.60;99.90
35796;DHT22;21916;52.428;13.302;2022-12-15T05:34:19;-8.60;99.90
35796;DHT22;21916;52.428;13.302;2022-12-15T05:36:45;-8.70;99.90
35796;DHT22;21916;52.428;13.302;2022-12-15T05:39:12;-8.70;99.90
35796;DHT22;21916;52.428;13.302;2022-12-15T05:41:38;-8.70;99.90
35796;DHT22;21916;52.428;13.302;2022-12-15T05:44:04;-8.80;99.90
35796;DHT22;21916;52.428;13.302;2022-12-15T05:46:30;-8.90;99.90
35796;DHT22;21916;52.428;13.302;2022-12-15T05:48:55;-9.00;99.90
35796;DHT22;21916;52.428;13.302;2022-12-15T05:51:21;-9.00;99.90
35796;DHT22;21916;52.428;13.302;2022-12-15T05:53:47;-9.00;99.90
35796;DHT22;21916;52.428;13.302;2022-12-15T05:56:13;-9.20;99.90
35796;DHT22;21916;52.428;13.302;2022-12-15T05:58:40;-9.20;99.90
35796;DHT22;21916;52.428;13.302;2022-12-15T06:01:09;-9.20;99.90
35796;DHT22;21916;52.428;13.302;2022-12-15T06:03:37;-9.30;99.90
35796;DHT22;21916;52.428;13.302;2022-12-15T06:06:04;-9.20;99.90
35796;DHT22;21916;52.428;13.302;2022-12-15T06:08:32;-9.30;99.90
35796;DHT22;21916;52.428;13.302;2022-12-15T06:10:59;-9.30;99.90
35796;DHT22;21916;52.428;13.302;2022-12-15T06:13:26;-9.40;99.90
35796;DHT22;21916;52.428;13.302;2022-12-15T06:16:00;-9.40;99.90
35796;DHT22;21916;52.428;13.302;2022-12-15T06:18:35;-9.40;99.90
35796;DHT22;21916;52.428;13.302;2022-12-15T06:21:09;-9.40;99.90
35796;DHT22;21916;52.428;13.302;2022-12-15T06:23:36;-9.40;99.90
35796;DHT22;21916;52.428;13.302;2022-12-15T06:26:28;-9.30;99.90
35796;DHT22;21916;52.428;13.302;2022-12-15T06:28:56;-9.30;99.90
35796;DHT22;21916;52.428;13.302;2022-12-15T06:31:23;-9.30;99.90
35796;DHT22;21916;52.428;13.302;2022-12-15T06:33:51;-9.40;99.90
35796;DHT22;21916;52.428;13.302;2022-12-15T06:36:17;-9.40;99.90
35796;DHT22;21916;52.428;13.302;2022-12-15T06:38:44;-9.40;99.90
35796;DHT22;21916;52.428;13.302;2022-12-15T06:41:13;-9.30;99.90
35796;DHT22;21916;52.428;13.302;2022-12-15T06:43:39;-9.40;99.90
35796;DHT22;21916;52.428;13.302;2022-12-15T06:46:06;-9.40;99.90
35796;DHT22;21916;52.428;13.302;2022-12-15T06:48:31;-9.30;99.90
35796;DHT22;21916;52.428;13.302;2022-12-15T06:51:07;-9.30;99.90
35796;DHT22;21916;52.428;13.302;2022-12-15T06:53:36;-9.30;99.90
35796;DHT22;21916;52.428;13.302;2022-12-15T06:56:04;-9.40;99.90
35796;DHT22;21916;52.428;13.302;2022-12-15T06:58:32;-9.40;99.90
35796;DHT22;21916;52.428;13.302;2022-12-15T07:00:58;-9.40;99.90
35796;DHT22;21916;52.428;13.302;2022-12-15T07:03:29;-9.40;99.90
35796;DHT22;21916;52.428;13.302;2022-12-15T07:06:02;-9.40;99.90
35796;DHT22;21916;52.428;13.302;2022-12-15T07:08:28;-9.40;99.90
35796;DHT22;21916;52.428;13.302;2022-12-15T07:10:55;-9.40;99.90
35796;DHT22;21916;52.428;13.302;2022-12-15T07:13:21;-9.50;99.90
35796;DHT22;21916;52.428;13.302;2022-12-15T07:15:47;-9.50;99.90
35796;DHT22;21916;52.428;13.302;2022-12-15T07:18:15;-9.40;99.90
35796;DHT22;21916;52.428;13.302;2022-12-15T07:20:42;-9.50;99.90
35796;DHT22;21916;52.428;13.302;2022-12-15T07:23:08;-9.50;99.90
35796;DHT22;21916;52.428;13.302;2022-12-15T07:25:38;-9.40;99.90
35796;DHT22;21916;52.428;13.302;2022-12-15T07:28:05;-9.40;99.90
35796;DHT22;21916;52.428;13.302;2022-12-15T07:30:32;-9.40;99.90
35796;DHT22;21916;52.428;13.302;2022-12-15T07:32:58;-9.40;99.90
35796;DHT22;21916;52.428;13.302;2022-12-15T07:35:24;-9.40;99.90
35796;DHT22;21916;52.428;13.302;2022-12-15T07:37:50;-9.40;99.90
35796;DHT22;21916;52.428;13.302;2022-12-15T07:40:16;-9.30;99.90
35796;DHT22;21916;52.428;13.302;2022-12-15T07:42:42;-9.30;99.90
35796;DHT22;21916;52.428;13.302;2022-12-15T07:45:08;-9.20;99.90
35796;DHT22;21916;52.428;13.302;2022-12-15T07:47:35;-9.20;99.90
35796;DHT22;21916;52.428;13.302;2022-12-15T07:50:01;-9.30;99.90
35796;DHT22;21916;52.428;13.302;2022-12-15T07:52:28;-9.30;99.90
35796;DHT22;21916;52.428;13.302;2022-12-15T07:54:54;-9.30;99.90
35796;DHT22;21916;52.428;13.302;2022-12-15T07:57:21;-9.30;99.90
35796;DHT22;21916;52.428;13.302;2022-12-15T07:59:49;-9.20;99.90
35796;DHT22;21916;52.428;13.302;2022-12-15T08:02:16;-9.10;99.90
35796;DHT22;21916;52.428;13.302;2022-12-15T08:04:42;-9.00;99.90
35796;DHT22;21916;52.428;13.302;2022-12-15T08:07:09;-8.90;99.90
35796;DHT22;21916;52.428;13.302;2022-12-15T08:09:35;-9.00;99.90
35796;DHT22;21916;52.428;13.302;2022-12-15T08:12:02;-8.80;99.90
35796;DHT22;21916;52.428;13.302;2022-12-15T08:14:28;-8.80;99.90
35796;DHT22;21916;52.428;13.302;2022-12-15T08:16:54;-8.70;99.90
35796;DHT22;21916;52.428;13.302;2022-12-15T08:19:20;-8.80;99.90
35796;DHT22;21916;52.428;13.302;2022-12-15T08:21:46;-8.70;99.90
35796;DHT22;21916;52.428;13.302;2022-12-15T08:24:13;-8.70;99.90
35796;DHT22;21916;52.428;13.302;2022-12-15T08:26:42;-8.60;99.90
35796;DHT22;21916;52.428;13.302;2022-12-15T08:29:11;-8.60;99.90
35796;DHT22;21916;52.428;13.302;2022-12-15T08:31:38;-8.60;99.90
35796;DHT22;21916;52.428;13.302;2022-12-15T08:34:05;-8.30;99.90
35796;DHT22;21916;52.428;13.302;2022-12-15T08:36:32;-8.30;99.90
35796;DHT22;21916;52.428;13.302;2022-12-15T08:39:00;-8.20;99.90
35796;DHT22;21916;52.428;13.302;2022-12-15T08:41:28;-8.20;99.90
35796;DHT22;21916;52.428;13.302;2022-12-15T08:43:58;-8.20;99.90
35796;DHT22;21916;52.428;13.302;2022-12-15T08:46:26;-8.10;99.90
35796;DHT22;21916;52.428;13.302;2022-12-15T08:48:52;-8.10;99.90
35796;DHT22;21916;52.428;13.302;2022-12-15T08:51:20;-8.10;99.90
35796;DHT22;21916;52.428;13.302;2022-12-15T08:53:46;-8.00;99.90
35796;DHT22;21916;52.428;13.302;2022-12-15T08:56:15;-7.80;99.90
35796;DHT22;21916;52.428;13.302;2022-12-15T08:58:42;-7.70;99.90
35796;DHT22;21916;52.428;13.302;2022-12-15T09:01:15;-7.60;99.90
35796;DHT22;21916;52.428;13.302;2022-12-15T09:03:44;-7.50;99.90
35796;DHT22;21916;52.428;13.302;2022-12-15T09:06:15;-7.50;99.90
35796;DHT22;21916;52.428;13.302;2022-12-15T09:08:41;-7.40;99.90
35796;DHT22;21916;52.428;13.302;2022-12-15T09:11:07;-7.30;99.90
35796;DHT22;21916;52.428;13.302;2022-12-15T09:13:33;-7.20;99.90
35796;DHT22;21916;52.428;13.302;2022-12-15T09:16:07;-7.10;99.90
35796;DHT22;21916;52.428;13.302;2022-12-15T09:18:39;-7.00;99.90
35796;DHT22;21916;52.428;13.302;2022-12-15T09:21:06;-6.80;99.90
35796;DHT22;21916;52.428;13.302;2022-12-15T09:23:33;-6.80;99.90
35796;DHT22;21916;52.428;13.302;2022-12-15T09:26:09;-6.70;99.90
35796;DHT22;21916;52.428;13.302;2022-12-15T09:28:37;-6.70;99.90
35796;DHT22;21916;52.428;13.302;2022-12-15T09:31:07;-6.50;99.90
35796;DHT22;21916;52.428;13.302;2022-12-15T09:33:34;-6.30;99.90
35796;DHT22;21916;52.428;13.302;2022-12-15T09:36:01;-6.20;99.90
35796;DHT22;21916;52.428;13.302;2022-12-15T09:38:28;-6.00;99.90
35796;DHT22;21916;52.428;13.302;2022-12-15T09:40:54;-6.00;99.90
35796;DHT22;21916;52.428;13.302;2022-12-15T09:43:24;-5.80;99.90
35796;DHT22;21916;52.428;13.302;2022-12-15T09:46:05;-5.50;99.90
35796;DHT22;21916;52.428;13.302;2022-12-15T09:48:39;-5.20;99.90
35796;DHT22;21916;52.428;13.302;2022-12-15T09:51:09;-4.90;99.90
35796;DHT22;21916;52.428;13.302;2022-12-15T09:53:37;-4.60;99.90
35796;DHT22;21916;52.428;13.302;2022-12-15T09:56:06;-4.20;99.90
35796;DHT22;21916;52.428;13.302;2022-12-15T09:58:51;-3.30;99.90
35796;DHT22;21916;52.428;13.302;2022-12-15T10:04:30;-1.20;99.90
35796;DHT22;21916;52.428;13.302;2022-12-15T10:07:11;-0.40;99.90
35796;DHT22;21916;52.428;13.302;2022-12-15T10:09:42;-1.10;99.90
35796;DHT22;21916;52.428;13.302;2022-12-15T10:12:25;-1.40;99.90
35796;DHT22;21916;52.428;13.302;2022-12-15T10:15:24;-1.90;99.90
35796;DHT22;21916;52.428;13.302;2022-12-15T10:20:19;-2.80;99.90
35796;DHT22;21916;52.428;13.302;2022-12-15T10:22:46;-3.10;99.90
35796;DHT22;21916;52.428;13.302;2022-12-15T10:25:27;-3.40;99.90
35796;DHT22;21916;52.428;13.302;2022-12-15T10:30:54;-3.00;99.90
35796;DHT22;21916;52.428;13.302;2022-12-15T10:33:25;-1.70;99.90
35796;DHT22;21916;52.428;13.302;2022-12-15T10:35:54;-0.50;99.90
35796;DHT22;21916;52.428;13.302;2022-12-15T10:38:39;-0.20;99.90
35796;DHT22;21916;52.428;13.302;2022-12-15T10:41:11;-0.40;99.90
35796;DHT22;21916;52.428;13.302;2022-12-15T10:43:44;-0.20;99.90
35796;DHT22;21916;52.428;13.302;2022-12-15T10:46:11;0.50;99.90
35796;DHT22;21916;52.428;13.302;2022-12-15T10:48:47;1.40;99.90
35796;DHT22;21916;52.428;13.302;2022-12-15T10:53:46;3.70;99.90
35796;DHT22;21916;52.428;13.302;2022-12-15T10:56:24;4.60;99.90
35796;DHT22;21916;52.428;13.302;2022-12-15T10:58:53;5.00;97.80
35796;DHT22;21916;52.428;13.302;2022-12-15T11:01:30;5.30;97.40
35796;DHT22;21916;52.428;13.302;2022-12-15T11:03:57;5.50;97.10
35796;DHT22;21916;52.428;13.302;2022-12-15T11:06:26;4.90;96.40
35796;DHT22;21916;52.428;13.302;2022-12-15T11:11:34;2.40;99.10
35796;DHT22;21916;52.428;13.302;2022-12-15T11:14:22;1.60;99.90
35796;DHT22;21916;52.428;13.302;2022-12-15T11:16:57;1.00;99.90
35796;DHT22;21916;52.428;13.302;2022-12-15T11:19:43;0.60;99.90
35796;DHT22;21916;52.428;13.302;2022-12-15T11:25:08;-0.30;99.90
35796;DHT22;21916;52.428;13.302;2022-12-15T11:27:39;-0.40;99.90
35796;DHT22;21916;52.428;13.302;2022-12-15T11:30:12;-0.40;99.90
35796;DHT22;21916;52.428;13.302;2022-12-15T11:32:47;-0.40;99.90
35796;DHT22;21916;52.428;13.302;2022-12-15T11:35:19;-0.40;99.90
35796;DHT22;21916;52.428;13.302;2022-12-15T11:38:12;-0.80;99.90
35796;DHT22;21916;52.428;13.302;2022-12-15T11:40:42;-0.60;99.90
35796;DHT22;21916;52.428;13.302;2022-12-15T11:46:35;-0.70;99.90
35796;DHT22;21916;52.428;13.302;2022-12-15T11:50:07;-0.10;99.90
35796;DHT22;21916;52.428;13.302;2022-12-15T11:54:53;4.60;99.90
35796;DHT22;21916;52.428;13.302;2022-12-15T12:11:14;9.70;90.80
35796;DHT22;21916;52.428;13.302;2022-12-15T12:16:38;8.50;90.20
35796;DHT22;21916;52.428;13.302;2022-12-15T12:19:12;8.00;91.10
35796;DHT22;21916;52.428;13.302;2022-12-15T12:21:43;7.10;91.90
35796;DHT22;21916;52.428;13.302;2022-12-15T12:29:32;10.10;90.50
35796;DHT22;21916;52.428;13.302;2022-12-15T12:32:22;10.40;89.00
35796;DHT22;21916;52.428;13.302;2022-12-15T12:37:47;11.30;83.80
35796;DHT22;21916;52.428;13.302;2022-12-15T12:40:25;11.30;83.40
35796;DHT22;21916;52.428;13.302;2022-12-15T12:42:55;10.70;83.70
35796;DHT22;21916;52.428;13.302;2022-12-15T12:47:55;10.30;85.70
35796;DHT22;21916;52.428;13.302;2022-12-15T12:50:26;10.90;85.40
35796;DHT22;21916;52.428;13.302;2022-12-15T12:52:56;10.70;83.10
35796;DHT22;21916;52.428;13.302;2022-12-15T12:55:40;10.10;84.80
35796;DHT22;21916;52.428;13.302;2022-12-15T12:58:32;10.40;85.20
35796;DHT22;21916;52.428;13.302;2022-12-15T13:01:24;10.40;84.00
35796;DHT22;21916;52.428;13.302;2022-12-15T13:09:24;9.60;85.80
35796;DHT22;21916;52.428;13.302;2022-12-15T13:12:01;9.20;85.00
35796;DHT22;21916;52.428;13.302;2022-12-15T13:17:26;9.00;86.30
35796;DHT22;21916;52.428;13.302;2022-12-15T13:22:37;8.90;87.40
35796;DHT22;21916;52.428;13.302;2022-12-15T13:27:56;8.80;87.10
35796;DHT22;21916;52.428;13.302;2022-12-15T13:30:23;9.50;86.90
35796;DHT22;21916;52.428;13.302;2022-12-15T13:32:53;10.00;84.40
35796;DHT22;21916;52.428;13.302;2022-12-15T13:35:39;9.40;87.00
35796;DHT22;21916;52.428;13.302;2022-12-15T13:38:16;9.80;86.10
35796;DHT22;21916;52.428;13.302;2022-12-15T13:40:52;10.70;83.30
35796;DHT22;21916;52.428;13.302;2022-12-15T13:46:00;11.30;82.50
35796;DHT22;21916;52.428;13.302;2022-12-15T13:48:39;11.90;81.90
35796;DHT22;21916;52.428;13.302;2022-12-15T13:54:22;10.50;81.60
35796;DHT22;21916;52.428;13.302;2022-12-15T13:57:04;9.60;82.60
35796;DHT22;21916;52.428;13.302;2022-12-15T13:59:44;8.80;85.40
35796;DHT22;21916;52.428;13.302;2022-12-15T14:05:12;9.30;84.60
35796;DHT22;21916;52.428;13.302;2022-12-15T14:10:40;7.70;87.10
35796;DHT22;21916;52.428;13.302;2022-12-15T14:15:54;6.10;90.90
35796;DHT22;21916;52.428;13.302;2022-12-15T14:18:43;5.50;91.80
35796;DHT22;21916;52.428;13.302;2022-12-15T14:21:23;5.30;92.20
35796;DHT22;21916;52.428;13.302;2022-12-15T14:23:51;4.40;93.60
35796;DHT22;21916;52.428;13.302;2022-12-15T14:26:17;3.60;95.10
35796;DHT22;21916;52.428;13.302;2022-12-15T14:28:45;3.40;96.30
35796;DHT22;21916;52.428;13.302;2022-12-15T14:31:21;2.40;98.40
35796;DHT22;21916;52.428;13.302;2022-12-15T14:34:05;1.80;99.90
35796;DHT22;21916;52.428;13.302;2022-12-15T14:36:33;1.40;99.90
35796;DHT22;21916;52.428;13.302;2022-12-15T14:39:05;0.90;99.90
35796;DHT22;21916;52.428;13.302;2022-12-15T14:41:39;0.60;99.90
35796;DHT22;21916;52.428;13.302;2022-12-15T14:46:53;0.10;99.90
35796;DHT22;21916;52.428;13.302;2022-12-15T14:49:27;-0.30;99.90
35796;DHT22;21916;52.428;13.302;2022-12-15T14:51:59;-0.50;99.90
35796;DHT22;21916;52.428;13.302;2022-12-15T14:54:27;-0.70;99.90
35796;DHT22;21916;52.428;13.302;2022-12-15T14:57:15;-0.90;99.90
35796;DHT22;21916;52.428;13.302;2022-12-15T14:59:43;-1.20;99.90
35796;DHT22;21916;52.428;13.302;2022-12-15T15:02:15;-1.30;99.90
35796;DHT22;21916;52.428;13.302;2022-12-15T15:04:42;-1.40;99.90
35796;DHT22;21916;52.428;13.302;2022-12-15T15:07:16;-1.50;99.90
35796;DHT22;21916;52.428;13.302;2022-12-15T15:09:44;-1.50;99.90
35796;DHT22;21916;52.428;13.302;2022-12-15T15:12:21;-1.90;99.90
35796;DHT22;21916;52.428;13.302;2022-12-15T15:14:58;-2.00;99.90
35796;DHT22;21916;52.428;13.302;2022-12-15T15:20:01;-2.10;99.90
35796;DHT22;21916;52.428;13.302;2022-12-15T15:22:35;-2.30;99.90
35796;DHT22;21916;52.428;13.302;2022-12-15T15:25:39;-2.40;99.90
35796;DHT22;21916;52.428;13.302;2022-12-15T15:30:49;-2.40;99.90
35796;DHT22;21916;52.428;13.302;2022-12-15T15:33:16;-2.50;99.90
35796;DHT22;21916;52.428;13.302;2022-12-15T15:35:44;-2.60;99.90
35796;DHT22;21916;52.428;13.302;2022-12-15T15:40:39;-2.70;99.90
35796;DHT22;21916;52.428;13.302;2022-12-15T15:43:12;-2.80;99.90
35796;DHT22;21916;52.428;13.302;2022-12-15T15:45:41;-2.80;99.90
35796;DHT22;21916;52.428;13.302;2022-12-15T15:48:13;-2.80;99.90
35796;DHT22;21916;52.428;13.302;2022-12-15T15:50:40;-2.90;99.90
35796;DHT22;21916;52.428;13.302;2022-12-15T15:53:11;-2.90;99.90
35796;DHT22;21916;52.428;13.302;2022-12-15T15:55:40;-2.90;99.90
35796;DHT22;21916;52.428;13.302;2022-12-15T15:58:11;-3.00;99.90
35796;DHT22;21916;52.428;13.302;2022-12-15T16:00:38;-3.00;99.90
35796;DHT22;21916;52.428;13.302;2022-12-15T16:03:04;-3.20;99.90
35796;DHT22;21916;52.428;13.302;2022-12-15T16:05:30;-3.20;99.90
35796;DHT22;21916;52.428;13.302;2022-12-15T16:07:57;-3.20;99.90
35796;DHT22;21916;52.428;13.302;2022-12-15T16:10:25;-3.20;99.90
35796;DHT22;21916;52.428;13.302;2022-12-15T16:12:53;-3.20;99.90
35796;DHT22;21916;52.428;13.302;2022-12-15T16:15:22;-3.30;99.90
35796;DHT22;21916;52.428;13.302;2022-12-15T16:17:48;-3.30;99.90
35796;DHT22;21916;52.428;13.302;2022-12-15T16:20:16;-3.30;99.90
35796;DHT22;21916;52.428;13.302;2022-12-15T16:22:46;-3.30;99.90
35796;DHT22;21916;52.428;13.302;2022-12-15T16:25:15;-3.40;99.90
35796;DHT22;21916;52.428;13.302;2022-12-15T16:27:42;-3.50;99.90
35796;DHT22;21916;52.428;13.302;2022-12-15T16:30:15;-3.50;99.90
35796;DHT22;21916;52.428;13.302;2022-12-15T16:32:41;-3.50;99.90
35796;DHT22;21916;52.428;13.302;2022-12-15T16:35:07;-3.60;99.90
35796;DHT22;21916;52.428;13.302;2022-12-15T16:37:33;-3.60;99.90
35796;DHT22;21916;52.428;13.302;2022-12-15T16:40:00;-3.60;99.90
35796;DHT22;21916;52.428;13.302;2022-12-15T16:42:26;-3.60;99.90
35796;DHT22;21916;52.428;13.302;2022-12-15T16:44:52;-3.60;99.90
35796;DHT22;21916;52.428;13.302;2022-12-15T16:47:20;-3.70;99.90
35796;DHT22;21916;52.428;13.302;2022-12-15T16:49:46;-3.70;99.90
35796;DHT22;21916;52.428;13.302;2022-12-15T16:52:19;-3.70;99.90
35796;DHT22;21916;52.428;13.302;2022-12-15T16:54:47;-3.80;99.90
35796;DHT22;21916;52.428;13.302;2022-12-15T16:57:13;-3.80;99.90
35796;DHT22;21916;52.428;13.302;2022-12-15T16:59:39;-3.70;99.90
35796;DHT22;21916;52.428;13.302;2022-12-15T17:02:23;-3.70;99.90
35796;DHT22;21916;52.428;13.302;2022-12-15T17:04:53;-3.70;99.90
35796;DHT22;21916;52.428;13.302;2022-12-15T17:07:20;-3.70;99.90
35796;DHT22;21916;52.428;13.302;2022-12-15T17:09:47;-3.80;99.90
35796;DHT22;21916;52.428;13.302;2022-12-15T17:12:16;-3.80;99.90
35796;DHT22;21916;52.428;13.302;2022-12-15T17:14:43;-3.90;99.90
35796;DHT22;21916;52.428;13.302;2022-12-15T17:17:13;-4.00;99.90
35796;DHT22;21916;52.428;13.302;2022-12-15T17:19:39;-4.00;99.90
35796;DHT22;21916;52.428;13.302;2022-12-15T17:22:05;-4.00;99.90
35796;DHT22;21916;52.428;13.302;2022-12-15T17:24:31;-4.00;99.90
35796;DHT22;21916;52.428;13.302;2022-12-15T17:26:58;-4.00;99.90
35796;DHT22;21916;52.428;13.302;2022-12-15T17:29:24;-4.10;99.90
35796;DHT22;21916;52.428;13.302;2022-12-15T17:31:50;-4.10;99.90
35796;DHT22;21916;52.428;13.302;2022-12-15T17:34:32;-4.10;99.90
35796;DHT22;21916;52.428;13.302;2022-12-15T17:37:01;-4.10;99.90
35796;DHT22;21916;52.428;13.302;2022-12-15T17:39:28;-4.10;99.90
35796;DHT22;21916;52.428;13.302;2022-12-15T17:41:54;-4.10;99.90
35796;DHT22;21916;52.428;13.302;2022-12-15T17:44:23;-4.10;99.90
35796;DHT22;21916;52.428;13.302;2022-12-15T17:46:49;-4.20;99.90